< < Back
Terminal Aerodrome Forecast


Current Version              Previous Versions:   1  2  3  4  5  6  7  8  9  

Terminal Aerodrome Forecast

580
FTUS42 KJAX 031122
TAFJAX
TAF
KJAX 031122Z 0312/0412 15008KT P6SM -SHRA BKN018 OVC060
     FM031500 18011KT P6SM VCSH OVC025
     FM031700 20012G18KT P6SM VCSH BKN030
     FM040100 21009KT P6SM SCT025 BKN250=

Latest METAR

242
SAUS80 KWBC 031700
MTRJAX
METAR KJAX 031656Z 16007KT 10SM OVC012 27/24 A2987 RMK AO2 SLP115
T02670239


USA.gov is the U.S. government's official web portal to all federal, state and local government web resources and services.